sensor_id;sensor_type;location;lat;lon;timestamp;P1;durP1;ratioP1;P2;durP2;ratioP2
38318;SDS011;24121;53.536;10.224;2023-02-12T00:00:56;23.17;;;11.35;;
38318;SDS011;24121;53.536;10.224;2023-02-12T00:03:21;19.95;;;9.13;;
38318;SDS011;24121;53.536;10.224;2023-02-12T00:05:46;21.73;;;8.60;;
38318;SDS011;24121;53.536;10.224;2023-02-12T00:08:11;19.65;;;9.82;;
38318;SDS011;24121;53.536;10.224;2023-02-12T10:23:24;67.18;;;28.13;;
38318;SDS011;24121;53.536;10.224;2023-02-12T10:25:52;68.22;;;27.88;;
38318;SDS011;24121;53.536;10.224;2023-02-12T10:33:20;58.78;;;26.02;;
38318;SDS011;24121;53.536;10.224;2023-02-12T10:35:48;62.03;;;25.38;;
38318;SDS011;24121;53.536;10.224;2023-02-12T10:38:16;56.17;;;26.13;;
38318;SDS011;24121;53.536;10.224;2023-02-12T10:40:43;66.80;;;27.67;;
38318;SDS011;24121;53.536;10.224;2023-02-12T10:43:09;53.40;;;25.15;;
38318;SDS011;24121;53.536;10.224;2023-02-12T10:45:36;56.53;;;27.67;;
38318;SDS011;24121;53.536;10.224;2023-02-12T10:53:15;54.72;;;25.77;;
38318;SDS011;24121;53.536;10.224;2023-02-12T10:55:41;47.00;;;25.45;;
38318;SDS011;24121;53.536;10.224;2023-02-12T10:58:14;44.17;;;24.60;;
38318;SDS011;24121;53.536;10.224;2023-02-12T11:00:41;46.30;;;25.67;;
38318;SDS011;24121;53.536;10.224;2023-02-12T11:05:35;50.42;;;26.30;;
38318;SDS011;24121;53.536;10.224;2023-02-12T11:08:00;43.03;;;24.92;;
38318;SDS011;24121;53.536;10.224;2023-02-12T11:10:27;51.43;;;24.40;;
38318;SDS011;24121;53.536;10.224;2023-02-12T11:12:52;42.45;;;22.45;;
38318;SDS011;24121;53.536;10.224;2023-02-12T11:15:21;45.10;;;24.50;;
38318;SDS011;24121;53.536;10.224;2023-02-12T11:18:07;41.08;;;22.52;;
38318;SDS011;24121;53.536;10.224;2023-02-12T11:20:39;45.55;;;25.45;;
38318;SDS011;24121;53.536;10.224;2023-02-12T11:23:05;55.95;;;27.48;;
38318;SDS011;24121;53.536;10.224;2023-02-12T11:25:52;55.38;;;27.38;;
38318;SDS011;24121;53.536;10.224;2023-02-12T11:28:19;42.83;;;24.58;;
38318;SDS011;24121;53.536;10.224;2023-02-12T11:30:48;50.53;;;26.75;;
38318;SDS011;24121;53.536;10.224;2023-02-12T11:33:27;39.53;;;24.35;;
38318;SDS011;24121;53.536;10.224;2023-02-12T11:35:53;46.90;;;25.80;;
38318;SDS011;24121;53.536;10.224;2023-02-12T11:38:21;36.42;;;22.38;;
38318;SDS011;24121;53.536;10.224;2023-02-12T11:40:47;34.63;;;22.52;;
38318;SDS011;24121;53.536;10.224;2023-02-12T11:43:13;36.80;;;23.95;;
38318;SDS011;24121;53.536;10.224;2023-02-12T11:45:42;38.13;;;23.35;;
38318;SDS011;24121;53.536;10.224;2023-02-12T11:48:17;38.25;;;22.33;;
38318;SDS011;24121;53.536;10.224;2023-02-12T11:50:45;29.98;;;19.30;;
38318;SDS011;24121;53.536;10.224;2023-02-12T11:53:16;29.20;;;20.17;;
38318;SDS011;24121;53.536;10.224;2023-02-12T11:55:43;29.98;;;20.58;;
38318;SDS011;24121;53.536;10.224;2023-02-12T11:58:19;30.13;;;21.70;;
38318;SDS011;24121;53.536;10.224;2023-02-12T12:00:46;31.55;;;22.13;;
38318;SDS011;24121;53.536;10.224;2023-02-12T12:03:17;39.83;;;24.30;;
38318;SDS011;24121;53.536;10.224;2023-02-12T12:05:49;31.40;;;22.30;;
38318;SDS011;24121;53.536;10.224;2023-02-12T12:08:25;35.60;;;23.48;;
38318;SDS011;24121;53.536;10.224;2023-02-12T12:10:57;43.22;;;24.63;;
38318;SDS011;24121;53.536;10.224;2023-02-12T12:13:26;34.75;;;22.17;;
38318;SDS011;24121;53.536;10.224;2023-02-12T12:16:03;36.30;;;22.80;;
38318;SDS011;24121;53.536;10.224;2023-02-12T12:19:11;33.67;;;20.08;;
38318;SDS011;24121;53.536;10.224;2023-02-12T12:24:23;34.13;;;18.42;;
38318;SDS011;24121;53.536;10.224;2023-02-12T12:26:52;32.53;;;19.13;;
38318;SDS011;24121;53.536;10.224;2023-02-12T12:32:08;36.70;;;18.98;;
38318;SDS011;24121;53.536;10.224;2023-02-12T12:34:35;30.40;;;19.50;;
38318;SDS011;24121;53.536;10.224;2023-02-12T16:13:33;16.67;;;10.20;;
38318;SDS011;24121;53.536;10.224;2023-02-12T16:16:07;17.45;;;10.20;;
38318;SDS011;24121;53.536;10.224;2023-02-12T16:18:39;16.27;;;10.30;;
38318;SDS011;24121;53.536;10.224;2023-02-12T16:21:09;16.35;;;10.25;;
38318;SDS011;24121;53.536;10.224;2023-02-12T16:23:42;15.43;;;9.70;;
38318;SDS011;24121;53.536;10.224;2023-02-12T16:26:14;14.45;;;10.07;;
38318;SDS011;24121;53.536;10.224;2023-02-12T16:28:44;15.55;;;10.05;;
38318;SDS011;24121;53.536;10.224;2023-02-12T16:31:12;18.83;;;10.90;;
38318;SDS011;24121;53.536;10.224;2023-02-12T16:36:10;19.33;;;11.93;;
38318;SDS011;24121;53.536;10.224;2023-02-12T16:38:43;23.08;;;13.48;;
38318;SDS011;24121;53.536;10.224;2023-02-12T16:46:23;20.77;;;11.70;;
38318;SDS011;24121;53.536;10.224;2023-02-12T16:48:49;26.20;;;12.32;;
38318;SDS011;24121;53.536;10.224;2023-02-12T16:51:26;18.83;;;11.48;;
38318;SDS011;24121;53.536;10.224;2023-02-12T16:53:54;15.50;;;11.07;;
38318;SDS011;24121;53.536;10.224;2023-02-12T16:56:21;16.58;;;11.23;;
38318;SDS011;24121;53.536;10.224;2023-02-12T16:58:48;18.70;;;11.70;;
38318;SDS011;24121;53.536;10.224;2023-02-12T17:01:21;20.02;;;10.95;;
38318;SDS011;24121;53.536;10.224;2023-02-12T17:03:48;15.70;;;9.65;;
38318;SDS011;24121;53.536;10.224;2023-02-12T17:06:15;16.52;;;8.30;;
38318;SDS011;24121;53.536;10.224;2023-02-12T17:08:44;13.70;;;7.90;;
38318;SDS011;24121;53.536;10.224;2023-02-12T17:11:10;10.55;;;7.22;;
38318;SDS011;24121;53.536;10.224;2023-02-12T17:13:35;9.07;;;6.60;;
38318;SDS011;24121;53.536;10.224;2023-02-12T17:16:00;8.73;;;6.80;;
38318;SDS011;24121;53.536;10.224;2023-02-12T17:18:26;11.48;;;9.00;;
38318;SDS011;24121;53.536;10.224;2023-02-12T17:20:56;11.98;;;9.00;;
38318;SDS011;24121;53.536;10.224;2023-02-12T17:23:26;12.00;;;8.50;;
38318;SDS011;24121;53.536;10.224;2023-02-12T17:25:51;8.40;;;6.68;;
38318;SDS011;24121;53.536;10.224;2023-02-12T17:28:17;9.45;;;7.28;;
38318;SDS011;24121;53.536;10.224;2023-02-12T17:30:43;9.02;;;6.80;;
38318;SDS011;24121;53.536;10.224;2023-02-12T17:33:08;8.20;;;6.13;;
38318;SDS011;24121;53.536;10.224;2023-02-12T17:35:33;10.02;;;6.82;;
38318;SDS011;24121;53.536;10.224;2023-02-12T17:37:59;8.13;;;5.75;;
38318;SDS011;24121;53.536;10.224;2023-02-12T17:40:24;10.10;;;7.30;;
38318;SDS011;24121;53.536;10.224;2023-02-12T17:42:49;9.88;;;6.78;;
38318;SDS011;24121;53.536;10.224;2023-02-12T17:45:15;8.85;;;6.85;;
38318;SDS011;24121;53.536;10.224;2023-02-12T17:47:41;9.13;;;7.22;;
38318;SDS011;24121;53.536;10.224;2023-02-12T17:50:10;8.27;;;6.18;;
38318;SDS011;24121;53.536;10.224;2023-02-12T17:52:38;9.68;;;7.60;;
38318;SDS011;24121;53.536;10.224;2023-02-12T17:55:04;8.27;;;6.97;;
38318;SDS011;24121;53.536;10.224;2023-02-12T17:57:30;9.02;;;7.07;;
38318;SDS011;24121;53.536;10.224;2023-02-12T17:59:55;10.05;;;7.85;;
38318;SDS011;24121;53.536;10.224;2023-02-12T18:02:21;10.30;;;7.72;;
38318;SDS011;24121;53.536;10.224;2023-02-12T18:04:46;12.48;;;7.95;;
38318;SDS011;24121;53.536;10.224;2023-02-12T18:07:12;12.10;;;8.85;;
38318;SDS011;24121;53.536;10.224;2023-02-12T18:09:37;11.40;;;9.02;;
38318;SDS011;24121;53.536;10.224;2023-02-12T18:12:03;11.50;;;9.05;;
38318;SDS011;24121;53.536;10.224;2023-02-12T18:14:31;12.88;;;8.93;;
38318;SDS011;24121;53.536;10.224;2023-02-12T18:16:56;12.65;;;8.82;;
38318;SDS011;24121;53.536;10.224;2023-02-12T18:19:24;13.38;;;8.63;;
38318;SDS011;24121;53.536;10.224;2023-02-12T18:21:50;12.90;;;8.63;;
38318;SDS011;24121;53.536;10.224;2023-02-12T18:24:15;12.38;;;9.05;;
38318;SDS011;24121;53.536;10.224;2023-02-12T18:26:40;17.05;;;11.15;;
38318;SDS011;24121;53.536;10.224;2023-02-12T18:29:06;14.23;;;10.40;;
38318;SDS011;24121;53.536;10.224;2023-02-12T18:31:31;14.13;;;10.40;;
38318;SDS011;24121;53.536;10.224;2023-02-12T18:33:57;13.57;;;9.57;;
38318;SDS011;24121;53.536;10.224;2023-02-12T18:36:22;13.73;;;9.85;;
38318;SDS011;24121;53.536;10.224;2023-02-12T18:38:49;14.48;;;9.18;;
38318;SDS011;24121;53.536;10.224;2023-02-12T18:43:51;15.32;;;9.93;;
38318;SDS011;24121;53.536;10.224;2023-02-12T18:46:22;14.93;;;9.20;;
38318;SDS011;24121;53.536;10.224;2023-02-12T18:48:49;14.63;;;8.95;;
38318;SDS011;24121;53.536;10.224;2023-02-12T18:51:16;13.45;;;8.95;;
38318;SDS011;24121;53.536;10.224;2023-02-12T18:53:42;13.45;;;9.27;;
38318;SDS011;24121;53.536;10.224;2023-02-12T18:56:08;14.88;;;10.00;;
38318;SDS011;24121;53.536;10.224;2023-02-12T18:58:35;14.18;;;9.65;;
38318;SDS011;24121;53.536;10.224;2023-02-12T19:01:00;14.50;;;9.48;;
38318;SDS011;24121;53.536;10.224;2023-02-12T19:03:35;14.55;;;10.80;;
38318;SDS011;24121;53.536;10.224;2023-02-12T19:06:03;14.63;;;11.13;;
38318;SDS011;24121;53.536;10.224;2023-02-12T19:08:29;17.58;;;12.48;;
38318;SDS011;24121;53.536;10.224;2023-02-12T19:10:54;15.95;;;11.77;;
38318;SDS011;24121;53.536;10.224;2023-02-12T19:13:19;17.45;;;11.15;;
38318;SDS011;24121;53.536;10.224;2023-02-12T19:15:45;16.35;;;12.15;;
38318;SDS011;24121;53.536;10.224;2023-02-12T19:18:10;17.17;;;11.93;;
38318;SDS011;24121;53.536;10.224;2023-02-12T19:20:38;16.90;;;11.48;;
38318;SDS011;24121;53.536;10.224;2023-02-12T19:23:04;20.17;;;12.35;;
38318;SDS011;24121;53.536;10.224;2023-02-12T19:25:29;14.20;;;11.40;;
38318;SDS011;24121;53.536;10.224;2023-02-12T19:27:54;16.77;;;12.48;;
38318;SDS011;24121;53.536;10.224;2023-02-12T19:30:20;16.52;;;12.07;;
38318;SDS011;24121;53.536;10.224;2023-02-12T19:32:46;15.52;;;11.82;;
38318;SDS011;24121;53.536;10.224;2023-02-12T19:35:11;17.77;;;12.60;;
38318;SDS011;24121;53.536;10.224;2023-02-12T19:37:37;20.50;;;13.80;;
38318;SDS011;24121;53.536;10.224;2023-02-12T19:40:02;16.08;;;12.57;;
38318;SDS011;24121;53.536;10.224;2023-02-12T19:42:28;14.95;;;12.15;;
38318;SDS011;24121;53.536;10.224;2023-02-12T19:44:54;16.23;;;12.63;;
38318;SDS011;24121;53.536;10.224;2023-02-12T19:47:19;20.27;;;14.15;;
38318;SDS011;24121;53.536;10.224;2023-02-12T19:49:45;18.50;;;13.13;;
38318;SDS011;24121;53.536;10.224;2023-02-12T19:52:10;17.40;;;13.52;;
38318;SDS011;24121;53.536;10.224;2023-02-12T19:54:35;22.05;;;14.55;;
38318;SDS011;24121;53.536;10.224;2023-02-12T19:57:01;17.35;;;13.48;;
38318;SDS011;24121;53.536;10.224;2023-02-12T19:59:32;19.02;;;13.77;;
38318;SDS011;24121;53.536;10.224;2023-02-12T20:01:58;16.88;;;12.57;;
38318;SDS011;24121;53.536;10.224;2023-02-12T20:04:24;20.67;;;15.27;;
38318;SDS011;24121;53.536;10.224;2023-02-12T20:06:49;19.13;;;14.23;;
38318;SDS011;24121;53.536;10.224;2023-02-12T20:09:15;22.35;;;15.63;;
38318;SDS011;24121;53.536;10.224;2023-02-12T20:11:41;24.35;;;16.20;;
38318;SDS011;24121;53.536;10.224;2023-02-12T20:14:08;23.92;;;16.10;;
38318;SDS011;24121;53.536;10.224;2023-02-12T20:16:34;21.52;;;15.05;;
38318;SDS011;24121;53.536;10.224;2023-02-12T20:19:14;20.10;;;14.13;;
38318;SDS011;24121;53.536;10.224;2023-02-12T20:21:47;21.90;;;16.48;;
38318;SDS011;24121;53.536;10.224;2023-02-12T20:24:17;20.23;;;15.05;;
38318;SDS011;24121;53.536;10.224;2023-02-12T20:26:43;24.23;;;15.90;;
38318;SDS011;24121;53.536;10.224;2023-02-12T20:29:08;27.90;;;17.83;;
38318;SDS011;24121;53.536;10.224;2023-02-12T20:31:34;25.50;;;17.42;;
38318;SDS011;24121;53.536;10.224;2023-02-12T20:34:02;25.60;;;17.42;;
38318;SDS011;24121;53.536;10.224;2023-02-12T20:36:29;24.63;;;17.40;;
38318;SDS011;24121;53.536;10.224;2023-02-12T20:38:57;29.02;;;19.60;;
38318;SDS011;24121;53.536;10.224;2023-02-12T20:41:23;28.38;;;18.85;;
38318;SDS011;24121;53.536;10.224;2023-02-12T20:43:49;27.90;;;17.85;;
38318;SDS011;24121;53.536;10.224;2023-02-12T20:46:17;25.95;;;18.23;;
38318;SDS011;24121;53.536;10.224;2023-02-12T20:48:44;32.63;;;19.40;;
38318;SDS011;24121;53.536;10.224;2023-02-12T20:51:14;30.65;;;19.05;;
38318;SDS011;24121;53.536;10.224;2023-02-12T20:53:44;34.60;;;20.67;;
38318;SDS011;24121;53.536;10.224;2023-02-12T20:56:13;26.95;;;18.33;;
38318;SDS011;24121;53.536;10.224;2023-02-12T20:58:41;34.60;;;20.17;;
38318;SDS011;24121;53.536;10.224;2023-02-12T21:01:22;32.95;;;20.45;;
38318;SDS011;24121;53.536;10.224;2023-02-12T21:03:49;31.20;;;19.80;;
38318;SDS011;24121;53.536;10.224;2023-02-12T21:06:15;26.92;;;18.02;;
38318;SDS011;24121;53.536;10.224;2023-02-12T21:08:41;36.60;;;21.08;;
38318;SDS011;24121;53.536;10.224;2023-02-12T21:11:07;25.63;;;18.38;;
38318;SDS011;24121;53.536;10.224;2023-02-12T21:13:38;24.25;;;18.02;;
38318;SDS011;24121;53.536;10.224;2023-02-12T21:18:29;27.52;;;18.48;;
38318;SDS011;24121;53.536;10.224;2023-02-12T21:20:58;32.53;;;20.35;;
38318;SDS011;24121;53.536;10.224;2023-02-12T21:23:25;31.10;;;21.15;;
38318;SDS011;24121;53.536;10.224;2023-02-12T21:25:57;26.45;;;18.50;;
38318;SDS011;24121;53.536;10.224;2023-02-12T21:28:26;32.40;;;19.90;;
38318;SDS011;24121;53.536;10.224;2023-02-12T21:30:51;26.90;;;18.92;;
38318;SDS011;24121;53.536;10.224;2023-02-12T21:33:16;27.42;;;20.23;;
38318;SDS011;24121;53.536;10.224;2023-02-12T21:35:42;35.50;;;21.45;;
38318;SDS011;24121;53.536;10.224;2023-02-12T21:38:07;33.55;;;21.35;;
38318;SDS011;24121;53.536;10.224;2023-02-12T21:40:32;32.33;;;21.48;;
38318;SDS011;24121;53.536;10.224;2023-02-12T21:42:57;35.20;;;21.55;;
38318;SDS011;24121;53.536;10.224;2023-02-12T21:45:23;31.42;;;20.58;;
38318;SDS011;24121;53.536;10.224;2023-02-12T21:47:48;33.33;;;21.85;;
38318;SDS011;24121;53.536;10.224;2023-02-12T21:50:13;31.42;;;20.95;;
38318;SDS011;24121;53.536;10.224;2023-02-12T21:52:39;38.22;;;23.88;;
38318;SDS011;24121;53.536;10.224;2023-02-12T21:55:04;36.97;;;22.52;;
38318;SDS011;24121;53.536;10.224;2023-02-12T21:57:29;41.55;;;23.40;;
38318;SDS011;24121;53.536;10.224;2023-02-12T21:59:56;40.78;;;23.90;;
38318;SDS011;24121;53.536;10.224;2023-02-12T22:02:21;32.25;;;20.67;;
38318;SDS011;24121;53.536;10.224;2023-02-12T22:04:46;44.50;;;25.80;;
38318;SDS011;24121;53.536;10.224;2023-02-12T22:07:13;32.53;;;21.20;;
38318;SDS011;24121;53.536;10.224;2023-02-12T22:09:39;31.02;;;21.55;;
38318;SDS011;24121;53.536;10.224;2023-02-12T22:12:05;37.58;;;23.13;;
38318;SDS011;24121;53.536;10.224;2023-02-12T22:14:30;40.00;;;23.15;;
38318;SDS011;24121;53.536;10.224;2023-02-12T22:16:55;36.30;;;22.33;;
38318;SDS011;24121;53.536;10.224;2023-02-12T22:19:21;34.28;;;22.55;;
38318;SDS011;24121;53.536;10.224;2023-02-12T22:21:48;31.58;;;21.48;;
38318;SDS011;24121;53.536;10.224;2023-02-12T22:24:15;36.13;;;22.50;;
38318;SDS011;24121;53.536;10.224;2023-02-12T22:26:40;33.00;;;21.50;;
38318;SDS011;24121;53.536;10.224;2023-02-12T22:29:07;29.70;;;20.70;;
38318;SDS011;24121;53.536;10.224;2023-02-12T22:31:34;39.47;;;24.55;;
